Time;durP1;ratioP1;P1;durP2;ratioP2;P2;SDS_P1;SDS_P2;PMS_P1;PMS_P2;Temp;Humidity;BMP_temperature;BMP_pressure;BME280_temperature;BME280_humidity;BME280_pressure;Samples;Min_cycle;Max_cycle;Signal;HPM_P1;HPM_P2
2024/04/03 00:00:46;;;;;;;3.55;2.50;;;9.50;82.90;;;;;;4996474;28;20042;-90
2024/04/03 00:03:12;;;;;;;3.17;1.52;;;9.50;84.20;;;;;;4997195;28;20041;-89
2024/04/03 00:05:38;;;;;;;2.47;1.73;;;9.50;83.50;;;;;;4993024;28;20109;-90
2024/04/03 00:08:04;;;;;;;2.33;1.52;;;9.40;82.90;;;;;;4994564;28;20110;-88
2024/04/03 00:10:31;;;;;;;4.15;1.45;;;9.30;83.40;;;;;;5004184;28;20038;-88
2024/04/03 00:12:57;;;;;;;4.22;1.80;;;9.30;83.50;;;;;;4997512;28;20089;-88
2024/04/03 00:15:23;;;;;;;4.70;2.38;;;9.30;84.00;;;;;;4997732;28;20040;-88
2024/04/03 00:17:51;;;;;;;3.58;1.63;;;9.30;84.70;;;;;;4997177;28;20103;-89
2024/04/03 00:20:16;;;;;;;3.33;1.38;;;9.20;88.20;;;;;;5002383;28;20018;-89
2024/04/03 00:22:42;;;;;;;4.13;1.92;;;9.10;88.20;;;;;;4997079;28;20077;-89
2024/04/03 00:25:08;;;;;;;6.40;2.17;;;9.00;88.50;;;;;;4997586;28;20409;-88
2024/04/03 00:27:34;;;;;;;3.63;1.90;;;9.00;88.60;;;;;;4978513;28;20030;-89
2024/04/03 00:29:59;;;;;;;7.30;2.67;;;8.90;89.40;;;;;;4985695;28;20026;-88
2024/04/03 00:32:25;;;;;;;6.95;2.03;;;8.80;90.00;;;;;;5004339;28;20025;-88
2024/04/03 00:34:53;;;;;;;4.90;2.53;;;8.80;90.90;;;;;;4997865;28;20030;-90
2024/04/03 00:37:22;;;;;;;3.45;2.55;;;8.70;90.50;;;;;;4999403;28;20023;-89
2024/04/03 00:39:57;;;;;;;7.55;2.58;;;8.70;90.10;;;;;;4997183;28;20018;-88
2024/04/03 00:42:24;;;;;;;4.15;2.15;;;8.60;90.40;;;;;;4979768;28;20389;-89
2024/04/03 00:44:50;;;;;;;3.58;1.83;;;8.60;92.10;;;;;;4996664;28;20022;-88
2024/04/03 00:47:17;;;;;;;4.50;1.90;;;8.50;92.70;;;;;;4999981;28;20437;-88
2024/04/03 00:49:44;;;;;;;6.82;2.97;;;8.50;93.40;;;;;;5001676;28;20049;-88
2024/04/03 00:52:12;;;;;;;4.95;3.50;;;8.50;93.30;;;;;;4998823;28;20026;-88
2024/04/03 00:54:40;;;;;;;5.00;2.78;;;8.40;93.10;;;;;;4996268;28;20161;-89
2024/04/03 00:57:06;;;;;;;2.63;2.17;;;8.40;93.30;;;;;;4995439;28;20027;-89
2024/04/03 00:59:31;;;;;;;4.43;2.17;;;8.40;93.80;;;;;;4999621;28;20029;-88
2024/04/03 01:01:57;;;;;;;6.53;2.97;;;8.40;93.90;;;;;;4998839;28;20025;-88
2024/04/03 01:04:23;;;;;;;3.80;3.00;;;8.40;93.70;;;;;;4995098;28;20489;-88
2024/04/03 01:06:48;;;;;;;6.15;2.72;;;8.40;93.70;;;;;;4996808;28;20030;-89
2024/04/03 01:09:14;;;;;;;6.22;2.47;;;8.40;93.50;;;;;;4996862;28;20543;-88
2024/04/03 01:11:40;;;;;;;8.43;2.80;;;8.40;93.60;;;;;;4996245;28;20026;-88
2024/04/03 01:14:07;;;;;;;3.00;2.15;;;8.30;94.40;;;;;;4995908;28;20076;-88
2024/04/03 01:16:34;;;;;;;4.15;2.83;;;8.30;94.80;;;;;;5004854;28;20021;-88
2024/04/03 01:19:00;;;;;;;5.95;2.72;;;8.30;95.00;;;;;;4998570;28;20026;-88
2024/04/03 01:21:25;;;;;;;5.78;2.50;;;8.30;94.90;;;;;;5004563;28;20098;-88
2024/04/03 01:23:54;;;;;;;5.53;2.72;;;8.30;94.50;;;;;;4979588;28;20026;-88
2024/04/03 01:26:20;;;;;;;3.83;1.98;;;8.40;94.90;;;;;;4996053;28;20500;-88
2024/04/03 01:28:45;;;;;;;3.72;1.98;;;8.40;95.40;;;;;;5004540;28;20030;-87
2024/04/03 01:31:11;;;;;;;6.15;3.55;;;8.30;96.00;;;;;;4991230;28;20023;-88
2024/04/03 01:33:38;;;;;;;4.75;2.95;;;8.30;96.60;;;;;;4996653;28;20031;-88
2024/04/03 01:36:06;;;;;;;5.03;2.80;;;8.20;97.00;;;;;;4998916;28;20022;-87
2024/04/03 01:38:32;;;;;;;4.50;2.80;;;8.10;97.00;;;;;;5008496;28;20022;-88
2024/04/03 01:40:57;;;;;;;4.78;2.00;;;8.10;97.50;;;;;;5002886;28;20461;-89
2024/04/03 01:43:23;;;;;;;6.13;2.65;;;8.20;97.80;;;;;;4997836;28;20034;-88
2024/04/03 01:45:57;;;;;;;4.88;1.98;;;8.10;98.90;;;;;;4997997;28;20633;-88
2024/04/03 01:48:22;;;;;;;5.20;1.92;;;8.10;99.50;;;;;;4998161;28;20043;-89
2024/04/03 01:50:48;;;;;;;3.63;1.38;;;8.10;98.60;;;;;;5005530;28;20031;-88
2024/04/03 01:53:13;;;;;;;7.20;3.40;;;8.10;98.70;;;;;;5002665;28;20034;-88
2024/04/03 01:55:39;;;;;;;5.35;2.50;;;8.10;99.50;;;;;;4997088;28;20039;-89
2024/04/03 01:58:05;;;;;;;4.47;2.22;;;8.10;98.80;;;;;;4995529;28;20030;-88
2024/04/03 02:00:30;;;;;;;6.45;2.67;;;8.10;99.30;;;;;;4994240;28;20101;-87
2024/04/03 02:02:56;;;;;;;10.75;3.05;;;8.10;99.60;;;;;;5010822;28;20434;-90
2024/04/03 02:05:22;;;;;;;5.55;2.88;;;8.10;99.90;;;;;;4995243;28;20481;-88
2024/04/03 02:07:49;;;;;;;3.17;2.30;;;8.10;99.90;;;;;;4980472;28;20092;-88
2024/04/03 02:10:15;;;;;;;4.55;2.67;;;8.20;99.90;;;;;;4999242;28;20030;-88
2024/04/03 02:12:41;;;;;;;4.68;1.45;;;8.20;99.90;;;;;;4999578;28;20038;-88
2024/04/03 02:15:07;;;;;;;3.03;1.85;;;8.30;99.90;;;;;;5000221;28;20101;-89
2024/04/03 02:17:32;;;;;;;2.88;2.22;;;8.30;99.90;;;;;;4999475;28;20545;-88
2024/04/03 02:19:58;;;;;;;5.32;2.30;;;8.20;99.90;;;;;;4982072;28;20023;-86
2024/04/03 02:22:23;;;;;;;5.55;2.65;;;8.20;99.90;;;;;;4998336;28;20051;-88
2024/04/03 02:24:49;;;;;;;4.00;1.77;;;8.20;99.90;;;;;;4999399;28;20038;-88
2024/04/03 02:27:15;;;;;;;4.55;1.73;;;8.20;99.90;;;;;;4999614;28;20030;-88
2024/04/03 02:29:40;;;;;;;3.85;1.77;;;8.20;99.90;;;;;;4999582;28;20478;-88
2024/04/03 02:32:06;;;;;;;9.80;2.63;;;8.20;99.90;;;;;;4981014;28;20019;-88
2024/04/03 02:34:32;;;;;;;4.78;1.98;;;8.20;99.90;;;;;;4997034;28;20034;-88
2024/04/03 02:36:57;;;;;;;5.28;1.63;;;8.10;99.90;;;;;;4996598;28;20034;-88
2024/04/03 02:39:23;;;;;;;3.08;2.00;;;8.10;99.90;;;;;;4999187;28;20026;-89
2024/04/03 02:41:49;;;;;;;4.60;2.03;;;8.20;99.90;;;;;;4998901;28;20067;-88
2024/04/03 02:44:14;;;;;;;5.93;2.42;;;8.30;99.90;;;;;;4999509;28;20031;-90
2024/04/03 02:46:40;;;;;;;4.65;2.55;;;8.20;99.90;;;;;;4999644;28;20034;-88
2024/04/03 02:49:06;;;;;;;3.42;1.85;;;8.30;99.90;;;;;;4999278;28;20030;-88
2024/04/03 02:51:31;;;;;;;6.88;2.38;;;8.30;99.90;;;;;;4999127;28;20033;-91
2024/04/03 02:53:57;;;;;;;4.70;2.03;;;8.40;99.90;;;;;;4999129;28;20027;-88
2024/04/03 02:56:23;;;;;;;4.70;2.50;;;8.40;99.90;;;;;;4999973;28;20026;-88
2024/04/03 02:58:48;;;;;;;6.22;2.92;;;8.40;99.60;;;;;;5003115;28;20054;-87
2024/04/03 03:01:14;;;;;;;5.57;2.58;;;8.40;98.90;;;;;;4998640;28;20037;-88
2024/04/03 03:03:40;;;;;;;5.28;2.40;;;8.50;99.60;;;;;;4999013;28;20109;-88
2024/04/03 03:06:06;;;;;;;5.55;1.67;;;8.50;99.20;;;;;;4998640;28;20034;-87
2024/04/03 03:08:33;;;;;;;5.85;2.30;;;8.40;97.60;;;;;;5000467;28;20115;-90
2024/04/03 03:11:02;;;;;;;3.05;2.13;;;8.40;97.00;;;;;;4998952;28;20050;-87
2024/04/03 03:13:28;;;;;;;3.50;1.60;;;8.40;96.60;;;;;;4998310;28;20037;-87
2024/04/03 03:15:58;;;;;;;4.38;1.98;;;8.40;96.00;;;;;;4999111;28;20023;-88
2024/04/03 03:18:28;;;;;;;4.57;2.20;;;8.40;95.40;;;;;;4998714;28;20026;-88
2024/04/03 03:20:54;;;;;;;3.00;2.35;;;8.40;95.00;;;;;;4996750;28;20018;-88
2024/04/03 03:23:20;;;;;;;4.68;1.85;;;8.40;95.40;;;;;;4999414;28;20496;-87
2024/04/03 03:25:47;;;;;;;6.05;3.30;;;8.40;94.90;;;;;;4999499;28;20026;-90
2024/04/03 03:28:13;;;;;;;5.55;2.40;;;8.40;94.60;;;;;;4998262;28;20023;-90
2024/04/03 03:30:40;;;;;;;3.22;1.80;;;8.40;95.10;;;;;;4985798;28;20022;-87
2024/04/03 03:33:05;;;;;;;4.28;2.25;;;8.40;95.90;;;;;;5006471;28;20045;-87
2024/04/03 03:35:31;;;;;;;4.28;1.98;;;8.30;98.40;;;;;;4999330;28;20537;-89
2024/04/03 03:37:57;;;;;;;3.72;2.15;;;8.30;99.90;;;;;;4999187;28;20041;-91
2024/04/03 03:40:23;;;;;;;3.92;2.38;;;8.30;99.90;;;;;;4986778;28;20022;-89
2024/04/03 03:42:49;;;;;;;8.48;2.15;;;8.30;99.90;;;;;;4992433;28;20033;-88
2024/04/03 03:45:18;;;;;;;3.08;2.05;;;8.20;99.90;;;;;;4997938;28;20022;-88
2024/04/03 03:47:45;;;;;;;4.72;2.22;;;8.30;99.90;;;;;;4989245;28;20170;-88
2024/04/03 03:52:55;;;;;;;3.70;2.53;;;8.10;99.90;;;;;;4997210;28;20413;-89
2024/04/03 03:55:20;;;;;;;2.92;2.53;;;8.10;99.90;;;;;;4996457;28;20027;-90
2024/04/03 03:57:46;;;;;;;3.95;1.75;;;8.10;99.90;;;;;;4998639;28;20469;-88
2024/04/03 04:00:13;;;;;;;3.38;1.92;;;8.10;99.90;;;;;;4984378;28;20030;-91
2024/04/03 04:02:38;;;;;;;3.75;1.98;;;8.10;99.90;;;;;;4997857;28;20099;-88
2024/04/03 04:05:04;;;;;;;3.85;1.77;;;8.10;99.90;;;;;;4996611;28;20038;-89
2024/04/03 04:07:32;;;;;;;7.38;2.03;;;8.00;99.90;;;;;;5004856;28;20073;-92
2024/04/03 04:09:58;;;;;;;6.60;1.77;;;8.00;99.90;;;;;;4996638;28;20041;-88
2024/04/03 04:12:23;;;;;;;4.82;1.85;;;8.00;99.90;;;;;;4996841;28;20628;-88
2024/04/03 04:14:51;;;;;;;3.78;3.13;;;8.00;99.90;;;;;;4996233;28;20562;-87
2024/04/03 04:17:18;;;;;;;3.35;2.25;;;7.90;99.90;;;;;;4997673;28;20542;-88
2024/04/03 04:19:45;;;;;;;3.70;1.20;;;7.90;99.90;;;;;;4996900;28;20375;-89
2024/04/03 04:22:11;;;;;;;4.45;3.00;;;8.00;99.90;;;;;;4988451;28;20023;-89
2024/04/03 04:24:37;;;;;;;4.72;1.92;;;7.90;99.90;;;;;;4996500;28;20038;-90
2024/04/03 04:27:05;;;;;;;4.28;3.05;;;8.00;99.90;;;;;;4994479;28;20054;-88
2024/04/03 04:29:32;;;;;;;3.70;1.95;;;8.00;99.90;;;;;;4997038;28;20045;-88
2024/04/03 04:31:59;;;;;;;4.30;2.75;;;7.90;99.90;;;;;;4996918;28;20535;-88
2024/04/03 04:34:25;;;;;;;3.75;2.33;;;7.90;99.90;;;;;;4998239;28;20030;-89
2024/04/03 04:36:51;;;;;;;9.48;2.20;;;7.90;99.90;;;;;;4996893;28;20026;-89
2024/04/03 04:39:17;;;;;;;4.80;1.98;;;7.90;99.90;;;;;;4997632;28;20153;-89
2024/04/03 04:41:42;;;;;;;6.43;2.53;;;7.90;99.90;;;;;;5009671;28;20018;-87
2024/04/03 04:44:08;;;;;;;5.72;2.97;;;7.90;99.90;;;;;;5001084;28;20532;-88
2024/04/03 04:46:34;;;;;;;4.55;2.10;;;7.90;99.90;;;;;;5001716;28;20104;-88
2024/04/03 04:49:00;;;;;;;4.28;2.38;;;8.00;99.90;;;;;;4992159;28;20034;-88
2024/04/03 04:51:26;;;;;;;2.80;2.40;;;8.00;99.90;;;;;;4998023;28;20041;-90
2024/04/03 04:53:51;;;;;;;4.43;2.00;;;8.00;99.90;;;;;;4991858;28;20027;-88
2024/04/03 04:56:17;;;;;;;5.22;1.75;;;8.10;99.90;;;;;;4995635;28;20022;-88
2024/04/03 04:58:42;;;;;;;6.53;1.98;;;8.10;99.90;;;;;;4997029;28;20394;-89
2024/04/03 05:01:09;;;;;;;4.97;2.78;;;8.10;99.90;;;;;;4996423;28;20018;-89
2024/04/03 05:03:36;;;;;;;4.32;1.92;;;8.20;99.90;;;;;;4997662;28;20022;-89
2024/04/03 05:06:03;;;;;;;7.00;2.53;;;8.10;99.90;;;;;;5012641;28;20030;-89
2024/04/03 05:08:31;;;;;;;3.80;1.95;;;8.20;99.50;;;;;;5004594;28;20026;-89
2024/04/03 05:10:58;;;;;;;4.28;2.33;;;8.20;98.70;;;;;;5013604;28;20065;-87
2024/04/03 05:13:29;;;;;;;4.45;2.38;;;8.20;97.00;;;;;;5008978;28;20114;-90
2024/04/03 05:15:56;;;;;;;4.45;2.45;;;8.20;96.70;;;;;;4979608;28;20117;-90
2024/04/03 05:18:22;;;;;;;3.33;2.13;;;8.30;96.20;;;;;;4999269;28;20032;-90
2024/04/03 05:20:47;;;;;;;3.05;1.73;;;8.30;96.20;;;;;;4994673;28;20086;-90
2024/04/03 05:23:13;;;;;;;4.70;2.20;;;8.40;93.40;;;;;;4990865;28;20026;-91
2024/04/03 05:25:39;;;;;;;3.25;1.88;;;8.40;94.30;;;;;;4995144;28;20028;-90
2024/04/03 05:28:05;;;;;;;4.57;1.40;;;8.50;93.10;;;;;;4983339;28;20104;-91
2024/04/03 05:30:37;;;;;;;3.15;1.90;;;8.50;91.70;;;;;;4981381;28;20046;-90
2024/04/03 05:33:04;;;;;;;4.85;2.35;;;8.60;93.10;;;;;;4987547;28;20101;-91
2024/04/03 05:35:30;;;;;;;4.20;2.15;;;8.60;93.10;;;;;;4991383;28;20049;-91
2024/04/03 05:37:56;;;;;;;2.80;1.45;;;8.60;93.70;;;;;;4986689;28;20029;-90
2024/04/03 05:40:22;;;;;;;2.22;1.58;;;8.60;93.20;;;;;;4990247;28;20041;-90
2024/04/03 05:42:48;;;;;;;2.58;1.27;;;8.60;92.50;;;;;;4992173;28;20018;-91
2024/04/03 05:45:14;;;;;;;4.43;1.60;;;8.70;92.90;;;;;;4995739;28;20030;-90
2024/04/03 05:47:40;;;;;;;4.07;2.80;;;8.60;92.80;;;;;;4991525;28;20038;-91
2024/04/03 05:50:06;;;;;;;3.85;2.03;;;8.80;92.70;;;;;;4997698;28;20050;-91
2024/04/03 05:52:36;;;;;;;4.05;1.83;;;8.80;90.70;;;;;;4998583;28;20037;-90
2024/04/03 05:55:02;;;;;;;5.45;2.20;;;8.80;92.10;;;;;;4941746;28;20116;-92
2024/04/03 05:57:29;;;;;;;3.85;2.30;;;8.80;90.80;;;;;;4970900;28;20045;-90
2024/04/03 05:59:55;;;;;;;2.63;1.85;;;8.90;90.50;;;;;;4851828;28;20047;-90
2024/04/03 06:02:21;;;;;;;3.33;1.88;;;8.90;90.90;;;;;;4912703;28;20034;-90
2024/04/03 06:04:46;;;;;;;4.50;2.47;;;8.90;90.50;;;;;;4906400;28;20073;-90
2024/04/03 06:07:12;;;;;;;4.38;1.77;;;8.90;89.90;;;;;;4924911;28;20034;-90
2024/04/03 06:09:41;;;;;;;4.75;2.13;;;9.00;89.30;;;;;;4943090;28;20042;-91
2024/04/03 06:12:07;;;;;;;7.20;2.65;;;9.00;89.60;;;;;;4923956;28;20047;-90
2024/04/03 06:14:32;;;;;;;4.22;2.20;;;9.00;90.00;;;;;;4914515;28;20038;-90
2024/04/03 06:16:58;;;;;;;3.50;1.77;;;9.10;89.80;;;;;;4925799;28;20023;-90
2024/04/03 06:19:23;;;;;;;2.50;1.63;;;9.10;89.50;;;;;;4936807;28;20466;-91
2024/04/03 06:21:49;;;;;;;5.25;2.25;;;9.20;89.70;;;;;;4974772;28;20023;-90
2024/04/03 06:24:15;;;;;;;2.63;1.45;;;9.20;89.50;;;;;;4980323;28;20545;-91
2024/04/03 06:26:40;;;;;;;4.05;1.42;;;9.30;88.70;;;;;;4975506;28;20027;-91
2024/04/03 06:29:06;;;;;;;3.00;2.75;;;9.30;89.70;;;;;;4979322;28;20034;-90
2024/04/03 06:31:33;;;;;;;3.03;1.55;;;9.30;90.80;;;;;;4979327;28;20034;-90
2024/04/03 06:33:59;;;;;;;1.95;1.33;;;9.30;91.00;;;;;;4991225;28;20031;-91
2024/04/03 06:36:29;;;;;;;2.70;1.90;;;9.30;91.00;;;;;;4983143;28;20038;-92
2024/04/03 06:38:55;;;;;;;2.67;1.83;;;9.30;93.10;;;;;;4974903;28;20038;-90
2024/04/03 06:41:22;;;;;;;3.63;1.75;;;9.20;93.40;;;;;;4984743;28;20541;-92
2024/04/03 06:43:47;;;;;;;5.90;5.40;;;9.10;94.80;;;;;;4978955;28;20034;-91
2024/04/03 06:46:13;;;;;;;4.13;1.77;;;9.00;96.10;;;;;;4981709;28;20405;-92
2024/04/03 06:48:40;;;;;;;6.10;2.20;;;8.90;97.70;;;;;;4974184;28;20027;-93
2024/04/03 06:51:08;;;;;;;2.47;2.25;;;8.90;99.80;;;;;;4981814;28;20030;-93
2024/04/03 06:53:34;;;;;;;5.75;2.13;;;8.90;99.30;;;;;;4980950;28;20477;-93
2024/04/03 06:56:06;;;;;;;3.03;1.70;;;8.80;99.40;;;;;;4984499;28;20037;-93
2024/04/03 06:58:52;;;;;;;6.53;2.42;;;8.80;99.90;;;;;;4973989;28;20054;-94
2024/04/03 07:01:24;;;;;;;3.40;1.63;;;8.80;99.90;;;;;;4972029;28;20494;-93
2024/04/03 07:04:12;;;;;;;3.33;2.13;;;8.80;99.90;;;;;;4981160;28;20034;-93
2024/04/03 07:06:43;;;;;;;1.83;1.60;;;8.90;99.90;;;;;;4976766;28;20034;-93
2024/04/03 07:09:35;;;;;;;4.00;2.95;;;8.90;99.90;;;;;;4975371;28;20074;-93
2024/04/03 07:12:10;;;;;;;2.78;1.92;;;9.00;99.90;;;;;;4982977;28;20069;-92
2024/04/03 07:14:36;;;;;;;;;;;9.10;99.50;;;;;;4977395;28;20043;-93
2024/04/03 07:17:08;;;;;;;6.75;2.28;;;9.20;99.90;;;;;;4969499;28;20317;-93
2024/04/03 07:19:41;;;;;;;5.78;2.80;;;9.30;99.90;;;;;;4971907;28;20057;-93
2024/04/03 07:22:12;;;;;;;4.07;2.15;;;9.40;99.90;;;;;;4965791;28;20024;-94
2024/04/03 07:24:54;;;;;;;;;;;;;;;;;;;;;
2024/04/03 07:27:35;;;;;;;4.35;2.65;;;9.50;99.60;;;;;;4971804;28;20102;-93
2024/04/03 07:32:52;;;;;;;4.03;1.65;;;9.70;99.90;;;;;;4976911;28;20041;-93
2024/04/03 07:35:30;;;;;;;2.20;1.75;;;9.80;99.40;;;;;;4971864;28;20034;-93
2024/04/03 07:38:09;;;;;;;3.10;1.85;;;9.90;99.90;;;;;;4990025;28;20090;-93
2024/04/03 07:41:26;;;;;;;2.90;1.67;;;10.00;99.90;;;;;;4974475;28;20035;-92
2024/04/03 07:43:54;;;;;;;3.70;2.10;;;10.10;99.90;;;;;;4969814;28;20039;-92
2024/04/03 07:46:31;;;;;;;3.42;1.52;;;10.20;97.10;;;;;;4967929;28;20039;-93
2024/04/03 07:49:03;;;;;;;4.18;2.17;;;10.30;99.20;;;;;;4959932;28;20039;-93
2024/04/03 07:54:17;;;;;;;1.77;1.42;;;10.20;99.90;;;;;;4972651;28;20213;-93
2024/04/03 07:56:51;;;;;;;3.00;1.30;;;10.10;99.90;;;;;;4967600;28;20047;-92
2024/04/03 07:59:41;;;;;;;1.98;1.33;;;10.20;99.90;;;;;;4991127;28;20026;-93
2024/04/03 08:02:13;;;;;;;8.40;2.25;;;10.10;99.90;;;;;;4974397;28;20062;-93
2024/04/03 08:04:42;;;;;;;3.38;2.28;;;10.10;99.90;;;;;;4972344;28;20076;-92
2024/04/03 08:07:11;;;;;;;3.80;2.42;;;10.20;99.90;;;;;;4968228;28;20045;-93
2024/04/03 08:10:00;;;;;;;3.78;2.05;;;10.30;99.90;;;;;;4979187;28;20103;-93
2024/04/03 08:12:55;;;;;;;4.18;2.03;;;10.40;99.90;;;;;;4976927;28;20050;-93
2024/04/03 08:15:25;;;;;;;2.70;1.80;;;10.60;99.60;;;;;;4967499;28;20027;-93
2024/04/03 08:18:03;;;;;;;3.45;2.28;;;10.60;97.60;;;;;;4974208;28;20113;-93
2024/04/03 08:20:40;;;;;;;2.80;1.50;;;10.70;98.50;;;;;;4976347;28;21142;-93
2024/04/03 08:23:06;;;;;;;2.45;1.65;;;10.80;96.90;;;;;;4989260;28;20031;-93
2024/04/03 08:25:41;;;;;;;2.28;1.67;;;10.90;96.40;;;;;;4972191;28;20038;-93
2024/04/03 08:28:10;;;;;;;2.63;1.70;;;10.90;94.80;;;;;;4973999;28;20049;-93
2024/04/03 08:30:47;;;;;;;5.25;2.67;;;11.00;94.40;;;;;;4962284;28;20039;-93
2024/04/03 08:33:16;;;;;;;2.58;2.30;;;11.00;94.80;;;;;;4977003;28;20045;-94
2024/04/03 08:35:43;;;;;;;3.40;1.73;;;11.20;96.90;;;;;;4972826;28;20039;-92
2024/04/03 08:38:11;;;;;;;2.20;1.33;;;11.30;94.20;;;;;;4971453;28;20097;-93
2024/04/03 08:40:38;;;;;;;2.47;1.77;;;11.50;93.70;;;;;;4977162;28;20531;-93
2024/04/03 08:43:13;;;;;;;3.85;2.55;;;11.50;92.00;;;;;;4969555;28;20022;-94
2024/04/03 08:45:44;;;;;;;3.92;1.45;;;11.60;91.60;;;;;;4973410;28;20026;-93
2024/04/03 08:48:12;;;;;;;4.43;1.80;;;11.80;90.30;;;;;;4968464;28;20114;-93
2024/04/03 08:50:41;;;;;;;3.42;1.60;;;11.90;89.90;;;;;;4978475;28;20065;-93
2024/04/03 08:53:25;;;;;;;3.63;3.13;;;11.90;91.00;;;;;;4969665;28;20035;-92
2024/04/03 08:55:55;;;;;;;4.38;2.05;;;12.00;91.30;;;;;;4965869;28;20035;-92
2024/04/03 08:58:21;;;;;;;5.25;1.98;;;12.10;91.60;;;;;;4968095;28;20135;-92
2024/04/03 09:00:51;;;;;;;4.20;1.67;;;12.00;89.60;;;;;;4959315;28;20367;-92
2024/04/03 09:03:21;;;;;;;3.63;2.42;;;12.00;91.20;;;;;;4968545;28;20042;-91
2024/04/03 09:05:52;;;;;;;3.67;2.00;;;12.00;91.30;;;;;;4972607;28;20031;-92
2024/04/03 09:08:23;;;;;;;3.65;1.52;;;11.90;93.30;;;;;;4966880;28;20038;-92
2024/04/03 09:10:56;;;;;;;4.13;1.70;;;11.90;94.70;;;;;;4970422;28;20026;-92
2024/04/03 09:13:25;;;;;;;3.80;1.60;;;11.80;96.80;;;;;;4971948;28;20042;-92
2024/04/03 09:15:54;;;;;;;3.25;1.63;;;11.70;97.40;;;;;;4959228;28;20051;-92
2024/04/03 09:18:21;;;;;;;3.38;1.98;;;11.80;98.00;;;;;;4959438;28;20034;-93
2024/04/03 09:20:59;;;;;;;3.17;1.30;;;12.00;98.00;;;;;;4977333;28;20433;-92
2024/04/03 09:23:25;;;;;;;3.72;1.30;;;12.10;97.30;;;;;;4974371;28;20473;-92
2024/04/03 09:25:54;;;;;;;3.42;1.92;;;12.10;91.90;;;;;;4965161;28;20069;-92
2024/04/03 09:28:21;;;;;;;2.28;1.73;;;12.10;93.70;;;;;;4978725;28;20055;-92
2024/04/03 09:30:51;;;;;;;5.57;1.92;;;12.30;89.90;;;;;;4999438;28;20026;-93
2024/04/03 09:33:17;;;;;;;4.70;1.13;;;12.30;89.90;;;;;;4989397;28;20061;-91
2024/04/03 09:35:45;;;;;;;2.72;1.52;;;12.50;90.60;;;;;;4970517;28;20043;-92
2024/04/03 09:38:19;;;;;;;4.95;1.25;;;12.30;91.30;;;;;;4978868;28;20019;-94
2024/04/03 09:40:50;;;;;;;3.92;1.52;;;12.20;90.90;;;;;;4989730;28;20031;-92
2024/04/03 09:43:23;;;;;;;2.25;1.48;;;12.40;92.00;;;;;;4978780;28;20027;-92
2024/04/03 09:45:53;;;;;;;5.93;1.83;;;12.50;91.40;;;;;;4975134;28;20022;-92
2024/04/03 09:48:29;;;;;;;1.35;1.25;;;12.40;92.00;;;;;;4977341;28;20062;-91
2024/04/03 09:50:58;;;;;;;4.30;1.30;;;12.40;87.50;;;;;;4963969;28;20053;-92
2024/04/03 09:53:24;;;;;;;2.72;1.35;;;12.50;80.20;;;;;;4961953;28;20191;-92
2024/04/03 09:55:52;;;;;;;1.02;0.82;;;12.60;80.40;;;;;;4967515;28;20023;-91
2024/04/03 09:58:20;;;;;;;2.50;0.90;;;12.70;76.20;;;;;;4969335;28;20109;-91
2024/04/03 10:00:52;;;;;;;1.45;1.35;;;12.60;73.70;;;;;;4971522;28;20034;-91
2024/04/03 10:03:28;;;;;;;0.63;0.63;;;12.50;72.10;;;;;;4971021;28;20525;-91
2024/04/03 10:06:04;;;;;;;2.13;1.30;;;12.40;74.70;;;;;;4984802;28;20035;-91
2024/04/03 10:08:49;;;;;;;0.63;0.63;;;12.40;80.40;;;;;;4967974;28;20031;-92
2024/04/03 10:11:18;;;;;;;2.85;1.00;;;12.30;81.70;;;;;;4973482;28;20038;-91
2024/04/03 10:13:44;;;;;;;1.20;0.70;;;12.20;83.20;;;;;;4986898;28;20065;-91
2024/04/03 10:16:16;;;;;;;1.05;0.88;;;12.10;79.20;;;;;;4966674;28;20045;-91
2024/04/03 10:18:50;;;;;;;1.27;0.80;;;12.00;81.70;;;;;;4975705;28;20047;-92
2024/04/03 10:21:16;;;;;;;1.70;1.00;;;11.80;83.70;;;;;;4960724;28;20023;-91
2024/04/03 10:23:49;;;;;;;1.02;1.00;;;11.70;85.50;;;;;;4975705;28;20029;-91
2024/04/03 10:26:16;;;;;;;1.45;0.65;;;11.60;86.90;;;;;;4967821;28;20035;-92
2024/04/03 10:28:44;;;;;;;1.95;0.93;;;11.50;86.20;;;;;;4969691;28;20050;-91
2024/04/03 10:31:16;;;;;;;1.27;1.00;;;11.60;90.30;;;;;;4969482;28;20020;-92
2024/04/03 10:33:42;;;;;;;1.65;1.55;;;11.60;89.10;;;;;;4975663;28;20525;-92
2024/04/03 10:36:08;;;;;;;1.45;1.25;;;11.50;93.10;;;;;;4975226;28;20023;-93
2024/04/03 10:38:36;;;;;;;1.70;1.60;;;11.40;92.80;;;;;;4979604;28;20027;-91
2024/04/03 10:41:24;;;;;;;1.42;1.23;;;11.30;93.30;;;;;;4981619;28;20033;-93
2024/04/03 10:44:23;;;;;;;1.35;0.90;;;11.40;95.70;;;;;;4979200;28;20038;-92
2024/04/03 10:54:20;;;;;;;1.95;1.30;;;11.50;96.50;;;;;;5001647;28;20073;-92
2024/04/03 11:00:13;;;;;;;2.80;1.38;;;11.80;97.90;;;;;;4976108;23;20058;-90
2024/04/03 11:02:46;;;;;;;1.52;0.98;;;11.90;92.60;;;;;;4975073;28;20115;-91
2024/04/03 11:05:15;;;;;;;2.65;1.33;;;11.90;93.00;;;;;;4975750;28;20038;-92
2024/04/03 11:07:43;;;;;;;1.23;0.90;;;11.80;94.20;;;;;;4983404;28;20521;-91
2024/04/03 11:10:11;;;;;;;2.38;1.40;;;11.90;94.90;;;;;;4982610;28;20023;-90
2024/04/03 11:12:38;;;;;;;2.55;1.42;;;12.00;94.70;;;;;;4977663;28;20030;-91
2024/04/03 11:15:05;;;;;;;2.60;0.90;;;12.00;94.80;;;;;;4971009;28;20031;-92
2024/04/03 11:17:31;;;;;;;1.98;1.00;;;12.10;93.90;;;;;;4973912;28;20026;-90
2024/04/03 11:19:57;;;;;;;1.60;1.00;;;12.10;92.50;;;;;;4973379;28;20023;-92
2024/04/03 11:22:22;;;;;;;2.05;0.88;;;12.30;92.90;;;;;;4978940;28;20142;-91
2024/04/03 11:24:48;;;;;;;1.95;0.82;;;12.50;94.30;;;;;;4979800;28;20089;-92
2024/04/03 11:27:15;;;;;;;2.85;1.67;;;12.80;91.00;;;;;;4975116;28;20038;-92
2024/04/03 11:29:41;;;;;;;3.00;0.82;;;12.70;89.60;;;;;;4978962;28;20031;-93
2024/04/03 11:32:08;;;;;;;1.50;1.13;;;12.60;90.90;;;;;;4968221;28;20055;-91
2024/04/03 11:34:37;;;;;;;2.97;1.02;;;12.60;92.80;;;;;;4973240;28;20089;-94
2024/04/03 11:37:03;;;;;;;3.15;1.63;;;12.60;94.20;;;;;;4972586;28;20109;-92
2024/04/03 11:39:30;;;;;;;1.20;0.75;;;12.50;92.20;;;;;;4980585;28;20054;-90
2024/04/03 11:41:59;;;;;;;1.52;1.40;;;12.50;92.80;;;;;;4971825;28;20027;-91
2024/04/03 11:44:25;;;;;;;2.03;1.27;;;12.50;95.70;;;;;;4979865;28;20039;-91
2024/04/03 11:46:51;;;;;;;1.42;1.13;;;12.60;94.40;;;;;;4980507;28;20032;-91
2024/04/03 11:49:16;;;;;;;3.05;1.00;;;12.50;90.90;;;;;;4980347;28;20030;-90
2024/04/03 11:51:43;;;;;;;1.27;1.17;;;12.40;92.70;;;;;;4966207;28;20031;-90
2024/04/03 11:54:09;;;;;;;2.15;1.23;;;12.30;92.80;;;;;;4965526;28;20027;-92
2024/04/03 11:56:34;;;;;;;1.98;1.05;;;12.40;91.60;;;;;;4972304;28;20023;-89
2024/04/03 11:59:00;;;;;;;1.42;0.88;;;12.50;93.80;;;;;;4975843;28;20031;-92
2024/04/03 12:01:26;;;;;;;1.15;1.00;;;12.50;92.10;;;;;;4976839;28;20493;-92
2024/04/03 12:03:53;;;;;;;2.67;1.02;;;12.50;94.40;;;;;;4979450;28;20101;-92
2024/04/03 12:06:19;;;;;;;1.20;0.93;;;12.50;94.30;;;;;;4971124;28;20046;-93
2024/04/03 12:08:49;;;;;;;2.03;1.77;;;12.60;92.60;;;;;;4978782;28;20015;-92
2024/04/03 12:11:15;;;;;;;1.15;0.65;;;12.50;91.40;;;;;;4979400;28;20046;-92
2024/04/03 12:13:40;;;;;;;2.17;1.92;;;12.40;93.60;;;;;;4980828;28;20022;-90
2024/04/03 12:16:06;;;;;;;1.52;0.98;;;12.40;93.90;;;;;;4980425;28;20025;-91
2024/04/03 12:18:48;;;;;;;2.47;0.95;;;12.40;94.30;;;;;;4968877;28;20098;-93
2024/04/03 12:21:15;;;;;;;1.52;1.20;;;12.40;93.10;;;;;;4979319;28;20121;-91
2024/04/03 12:23:42;;;;;;;1.05;0.80;;;12.40;93.00;;;;;;4974975;28;20042;-92
2024/04/03 12:26:14;;;;;;;1.58;1.48;;;12.40;94.40;;;;;;4979666;28;20389;-93
2024/04/03 12:28:40;;;;;;;1.83;1.73;;;12.30;93.50;;;;;;4979888;28;20038;-92
2024/04/03 12:31:06;;;;;;;1.50;0.93;;;12.30;93.80;;;;;;4978794;28;20031;-93
2024/04/03 12:33:32;;;;;;;1.20;0.90;;;12.30;95.20;;;;;;4976908;28;20074;-93
2024/04/03 12:35:58;;;;;;;0.88;0.88;;;12.20;94.00;;;;;;4974057;28;20030;-92
2024/04/03 12:38:24;;;;;;;1.00;0.90;;;12.30;95.60;;;;;;4978651;28;20023;-93
2024/04/03 12:40:51;;;;;;;1.27;0.82;;;12.30;93.20;;;;;;4979621;28;20027;-90
2024/04/03 12:43:16;;;;;;;2.47;1.40;;;12.30;94.40;;;;;;4975473;28;20027;-92
2024/04/03 12:45:42;;;;;;;1.30;1.05;;;12.20;93.20;;;;;;4974161;28;20041;-91
2024/04/03 12:48:09;;;;;;;1.13;1.05;;;12.20;93.40;;;;;;4972193;28;20030;-92
2024/04/03 12:50:35;;;;;;;1.27;1.13;;;12.20;94.70;;;;;;4973060;28;20035;-92
2024/04/03 12:53:03;;;;;;;1.23;1.02;;;12.30;95.90;;;;;;4979658;28;20485;-90
2024/04/03 12:55:29;;;;;;;1.58;1.15;;;12.40;96.40;;;;;;4980513;28;20039;-93
2024/04/03 12:57:55;;;;;;;1.42;1.33;;;12.50;94.20;;;;;;4981577;28;20027;-92
2024/04/03 13:00:21;;;;;;;2.35;0.82;;;12.40;93.80;;;;;;4980256;28;20030;-93
2024/04/03 13:02:46;;;;;;;2.78;1.33;;;12.30;95.50;;;;;;4975161;28;20026;-92
2024/04/03 13:05:12;;;;;;;1.38;1.10;;;12.30;99.30;;;;;;4982184;28;20117;-93
2024/04/03 13:07:37;;;;;;;1.45;0.75;;;12.30;97.50;;;;;;4979168;28;20023;-92
2024/04/03 13:10:04;;;;;;;2.63;1.00;;;12.20;99.20;;;;;;4967448;28;20034;-91
2024/04/03 13:12:29;;;;;;;2.38;1.15;;;12.30;99.50;;;;;;4968201;28;20075;-93
2024/04/03 13:14:55;;;;;;;1.00;0.75;;;12.20;99.90;;;;;;4978481;28;20034;-93
2024/04/03 13:17:20;;;;;;;1.20;1.08;;;12.10;99.90;;;;;;4979790;28;20023;-92
2024/04/03 13:19:46;;;;;;;1.05;0.70;;;12.10;99.90;;;;;;4980589;28;20110;-93